AF681 / F-GZNJ 7700 Squawk Report (23rd of June, 2019)

Aircraft B77W Reg No. F-GZNJ Age 8 years old
Model 777 Jet engines 2 First flight 06-04-11
Registered 19-04-11 Rollout 21-03-11 Delivered 15-04-11
Construction No. 38706 Line No. 0928 Series 328(ER)
ADSHEX 3965A9 Airline name Air France Owner N/A
Airfield based Paris-Charles de Gaulle~Val-d'Oise~F First tracked 2017-07-13 12:54:00

Flight history for F-GZNJ

Route Flight No Date Playback
Blaise Diagne International (DSS) - Charles De Gaulle (CDG) AF719 2019-07-24 04:56:00
Charles De Gaulle (CDG) - Blaise Diagne International (DSS) AF718 2019-07-23 22:25:00
Capital Intl (PEK) - Charles De Gaulle (CDG) AF125 2019-07-23 11:29:00
Charles De Gaulle (CDG) - Capital Intl (PEK) AF128 2019-07-23 03:25:00
Hartsfield Jackson Atlanta Intl (ATL) - Charles De Gaulle (CDG) AF681 2019-07-22 12:26:00
Charles De Gaulle (CDG) - Hartsfield Jackson Atlanta Intl (ATL) AF682 2019-07-21 20:50:00
Hartsfield Jackson Atlanta Intl (ATL) - Charles De Gaulle (CDG) AF681 2019-07-21 04:27:00
Charles De Gaulle (CDG) - Hartsfield Jackson Atlanta Intl (ATL) AF682 2019-07-20 17:37:00
Galeao Antonio Carlos Jobim (GIG) - Charles De Gaulle (CDG) AF443 2019-07-20 05:17:00
Charles De Gaulle (CDG) - Galeao Antonio Carlos Jobim (GIG) AF442 2019-07-19 08:49:00
???? N/A 2019-07-18 19:29:00
Taoyuan Intl (TPE) - Charles De Gaulle (CDG) AF557 2019-07-16 18:42:00
Charles De Gaulle (CDG) - Taoyuan Intl (TPE) AF552 2019-07-16 01:34:00
???? N/A 2019-07-15 09:38:00
Narita Intl (NRT) - Charles De Gaulle (CDG) AF275 2019-07-14 13:28:00
Charles De Gaulle (CDG) - Narita Intl (NRT) AF276 2019-07-13 23:41:00
Blaise Diagne International (DSS) - Charles De Gaulle (CDG) AF719 2019-07-13 12:24:00
Charles De Gaulle (CDG) - Blaise Diagne International (DSS) AF718 2019-07-12 23:28:00
Incheon International (ICN) - Charles De Gaulle (CDG) AF267 2019-07-12 12:05:00
Charles De Gaulle (CDG) - Incheon International (ICN) AF264 2019-07-11 22:38:00
Time Lat Lon Altitude Heading Speed Vertical Rate
2019-06-23 21:58:25 GMT 33.634689 -84.401512 1,025 270 172 -960
2019-06-23 21:58:19 GMT 33.634689 -84.396973 1,100 271 171 -1024
2019-06-23 21:58:08 GMT 33.634689 -84.386726 1,250 271 168 -960
2019-06-23 21:57:58 GMT 33.634689 -84.376961 1,400 270 165 -960
2019-06-23 21:57:47 GMT 33.634689 -84.367043 1,575 270 163 -896
2019-06-23 21:57:35 GMT 33.634689 -84.356400 1,725 270 161 -832
2019-06-23 21:57:30 GMT 33.634689 -84.352058 1,800 271 161 -832
2019-06-23 21:57:25 GMT 33.634689 -84.347305 1,850 271 161 -832
2019-06-23 21:57:16 GMT 33.634644 -84.340034 1,950 270 161 -832
2019-06-23 21:57:12 GMT 33.634644 -84.336433 2,000 270 163 -832
2019-06-23 21:57:09 GMT 33.634644 -84.333244 2,050 270 165 -832
2019-06-23 21:57:03 GMT 33.634644 -84.327072 2,150 270 168 -832
2019-06-23 21:56:58 GMT 33.634644 -84.323433 2,200 270 169 -704
2019-06-23 21:56:51 GMT 33.634644 -84.316750 2,300 270 172 -832
2019-06-23 21:56:47 GMT 33.634644 -84.311775 2,375 270 184 -576
2019-06-23 21:56:40 GMT 33.634598 -84.306168 2,450 271 178 -1024
2019-06-23 21:56:35 GMT 33.634598 -84.301399 2,525 270 180 -1088
2019-06-23 21:56:29 GMT 33.634598 -84.295296 2,650 270 183 -1024
2019-06-23 21:56:26 GMT 33.634644 -84.292030 2,700 270 184 -896
2019-06-23 21:56:18 GMT 33.634644 -84.283974 2,775 270 184 -512
2019-06-23 21:56:14 GMT 33.634644 -84.280212 2,825 271 185 -320
2019-06-23 21:56:08 GMT 33.634598 -84.272232 2,850 271 187 0
2019-06-23 21:56:05 GMT 33.634548 -84.270172 2,850 271 188 0
2019-06-23 21:55:54 GMT 33.634598 -84.258858 2,850 270 190 128
2019-06-23 21:55:51 GMT 33.634598 -84.255692 2,850 270 191 -64
2019-06-23 21:55:43 GMT 33.634598 -84.247818 2,850 271 192 0
2019-06-23 21:55:39 GMT 33.634548 -84.242310 2,850 271 193 64
2019-06-23 21:55:33 GMT 33.634502 -84.235153 2,850 270 193 64
2019-06-23 21:55:28 GMT 33.634506 -84.229599 2,850 271 193 -64
2019-06-23 21:55:20 GMT 33.634457 -84.220848 2,850 271 194 0
2019-06-23 21:55:09 GMT 33.634365 -84.210258 2,850 271 194 0
2019-06-23 21:54:59 GMT 33.634411 -84.197906 2,850 270 192 -64
2019-06-23 21:54:49 GMT 33.634460 -84.189743 2,850 271 194 -64
2019-06-23 21:54:43 GMT 33.634411 -84.181595 2,850 271 196 -64
2019-06-23 21:54:36 GMT 33.634277 -84.173943 2,875 270 200 0
2019-06-23 21:54:28 GMT 33.634323 -84.166260 2,875 267 201 64
2019-06-23 21:54:25 GMT 33.634644 -84.160477 2,850 266 201 64
2019-06-23 21:54:17 GMT 33.634918 -84.153648 2,850 270 202 128
2019-06-23 21:54:12 GMT 33.634644 -84.147652 2,825 283 203 64
2019-06-23 21:54:06 GMT 33.632996 -84.141541 2,825 298 205 64
2019-06-23 21:54:00 GMT 33.629894 -84.136215 2,825 316 207 -192
2019-06-23 21:53:54 GMT 33.625809 -84.131844 2,850 322 207 -64
2019-06-23 21:53:51 GMT 33.622494 -84.128838 2,850 326 208 -64
2019-06-23 21:53:43 GMT 33.617279 -84.124779 2,850 328 212 -128
2019-06-23 21:53:39 GMT 33.613556 -84.121857 2,850 328 216 -192
2019-06-23 21:53:33 GMT 33.607590 -84.117325 2,875 328 221 -192
2019-06-23 21:53:29 GMT 33.604111 -84.114632 2,900 329 223 0
2019-06-23 21:53:21 GMT 33.596935 -84.109726 2,875 333 229 256
2019-06-23 21:53:18 GMT 33.594040 -84.108078 2,850 338 235 192
2019-06-23 21:53:11 GMT 33.586647 -84.105324 2,850 352 246 -64
2019-06-23 21:53:07 GMT 33.581619 -84.104691 2,850 359 253 0
2019-06-23 21:53:00 GMT 33.573940 -84.105324 2,850 12 260 0
2019-06-23 21:52:56 GMT 33.569138 -84.106789 2,850 19 263 64
2019-06-23 21:52:49 GMT 33.561882 -84.110703 2,850 31 267 0
2019-06-23 21:52:44 GMT 33.556320 -84.115364 2,850 42 269 64
2019-06-23 21:52:38 GMT 33.551147 -84.121811 2,850 53 269 0
2019-06-23 21:52:33 GMT 33.547031 -84.129410 2,850 64 269 128
2019-06-23 21:52:27 GMT 33.544601 -84.136269 2,850 73 269 64
2019-06-23 21:52:21 GMT 33.542862 -84.145241 2,850 82 269 -64
2019-06-23 21:52:16 GMT 33.542282 -84.152641 2,850 87 268 0
2019-06-23 21:52:10 GMT 33.541958 -84.162888 2,850 87 267 0
2019-06-23 21:52:04 GMT 33.541725 -84.169350 2,850 87 267 64
2019-06-23 21:51:58 GMT 33.541351 -84.182686 2,850 87 267 0
2019-06-23 21:51:52 GMT 33.541214 -84.186661 2,850 87 267 0
2019-06-23 21:51:41 GMT 33.540703 -84.202881 2,850 87 267 -64
2019-06-23 21:51:28 GMT 33.540070 -84.222031 2,850 88 265 0
2019-06-23 21:51:19 GMT 33.539749 -84.235092 2,850 88 265 0
2019-06-23 21:51:09 GMT 33.539398 -84.251289 2,850 88 267 0
2019-06-23 21:50:57 GMT 33.539062 -84.269203 2,850 88 269 64
2019-06-23 21:50:48 GMT 33.538879 -84.280518 2,850 88 270 0
2019-06-23 21:50:44 GMT 33.538792 -84.286385 2,850 88 270 -64
2019-06-23 21:50:35 GMT 33.538513 -84.300735 2,850 88 270 64
2019-06-23 21:50:25 GMT 33.538185 -84.316872 2,850 88 270 0
2019-06-23 21:50:16 GMT 33.537964 -84.328362 2,850 88 269 0
2019-06-23 21:50:13 GMT 33.537861 -84.334534 2,850 88 269 0
2019-06-23 21:50:05 GMT 33.537689 -84.344894 2,850 88 269 0
2019-06-23 21:50:00 GMT 33.537460 -84.355225 2,850 88 269 64
2019-06-23 21:49:55 GMT 33.537369 -84.360443 2,850 88 270 -64
2019-06-23 21:49:52 GMT 33.537254 -84.364914 2,850 88 270 64
2019-06-23 21:49:42 GMT 33.536976 -84.380211 2,850 88 271 0
2019-06-23 21:49:31 GMT 33.536591 -84.396423 2,850 88 272 0
2019-06-23 21:49:22 GMT 33.536324 -84.409081 2,850 88 271 -64
2019-06-23 21:49:19 GMT 33.536232 -84.413284 2,850 88 270 0
2019-06-23 21:49:10 GMT 33.535858 -84.429543 2,850 88 269 0
2019-06-23 21:48:59 GMT 33.535580 -84.445122 2,850 88 268 -64
2019-06-23 21:48:47 GMT 33.535301 -84.461937 2,850 88 268 64
2019-06-23 21:48:37 GMT 33.534897 -84.484314 2,850 88 271 0
2019-06-23 21:48:26 GMT 33.534805 -84.492722 2,850 88 271 0
2019-06-23 21:48:21 GMT 33.534695 -84.500778 2,850 89 270 0
2019-06-23 21:48:16 GMT 33.534603 -84.507339 2,850 90 269 -64
2019-06-23 21:48:04 GMT 33.535023 -84.525673 2,850 103 267 0
2019-06-23 21:47:58 GMT 33.536140 -84.534416 2,850 107 266 -64
2019-06-23 21:47:54 GMT 33.537537 -84.540077 2,850 111 266 -64
2019-06-23 21:47:46 GMT 33.541214 -84.550896 2,850 113 266 0
2019-06-23 21:47:41 GMT 33.543774 -84.557938 2,850 113 266 0
2019-06-23 21:47:28 GMT 33.549965 -84.575043 2,850 113 266 0
2019-06-23 21:47:20 GMT 33.554169 -84.586708 2,850 113 267 0
2019-06-23 21:47:07 GMT 33.560532 -84.604454 2,850 112 269 -64
2019-06-23 21:46:56 GMT 33.566257 -84.619614 2,850 115 269 0
2019-06-23 21:46:47 GMT 33.571884 -84.630486 2,850 130 268 0
2019-06-23 21:46:35 GMT 33.582737 -84.641479 2,850 151 264 0
2019-06-23 21:46:27 GMT 33.593536 -84.646240 2,850 172 259 -64
2019-06-23 21:46:23 GMT 33.596470 -84.646744 2,850 174 259 -64
2019-06-23 21:46:16 GMT 33.604942 -84.646629 2,850 189 255 0
2019-06-23 21:46:12 GMT 33.609879 -84.645370 2,850 198 253 64
2019-06-23 21:46:06 GMT 33.617157 -84.641701 2,850 215 250 0
2019-06-23 21:46:01 GMT 33.621506 -84.638054 2,850 223 249 -64
2019-06-23 21:45:55 GMT 33.626312 -84.632317 2,850 233 247 0
2019-06-23 21:45:50 GMT 33.629570 -84.626595 2,850 242 246 64
2019-06-23 21:45:42 GMT 33.632812 -84.616585 2,825 262 245 -64
2019-06-23 21:45:39 GMT 33.633389 -84.613152 2,825 262 245 -64
2019-06-23 21:45:25 GMT 33.634178 -84.593582 2,850 269 246 -64
2019-06-23 21:45:11 GMT 33.634506 -84.575279 2,850 270 244 0
2019-06-23 21:45:03 GMT 33.634457 -84.564339 2,825 271 243 256
2019-06-23 21:44:53 GMT 33.634186 -84.550667 2,825 272 244 -128
2019-06-23 21:44:44 GMT 33.633957 -84.539062 2,850 272 242 -192
2019-06-23 21:44:34 GMT 33.633759 -84.525085 2,925 270 217 448
2019-06-23 21:44:27 GMT 33.633667 -84.510612 2,950 270 217 448
2019-06-23 21:44:20 GMT 33.633713 -84.507980 2,950 269 216 448
2019-06-23 21:44:11 GMT 33.634048 -84.497757 2,875 267 208 448
2019-06-23 21:44:01 GMT 33.634548 -84.486176 2,800 268 201 384

Making use of Plane Finder data

You are free to use the raw flight data, aircraft information and images provided in this report for your own purposes provided the data is correctly attributed to Plane Finder. We ask that you please credit Plane Finder and link to planefinder.net in close proximity to the content.

Optionally one of the following logos (no smaller then 150x24px) can be used and must link to planefinder.net

Embedding the Plane Finder map

You are welcome to embed the Plane Finder playback map on your website to offer visitors a more interactive experience. We suggest using the following HTML code:

<iframe src="//planefinder.net/data/report/AF681-F-GZNJ-7700-squawk-2019-06-23/map" width="800" height="600" seamless="seamless"></iframe>

Where our data comes from

Plane Finder has a global network of data feeds and antenna radars that receive data broadcast directly from aircraft. The primary technologies used are ADS-B and MLAT. We also show feeds from the FAA and a FLARM glider feed.

Click here to find out more about the Plane Finder network.

How we collect our data